NOO2005 SKBQ-SKBG
Flight info
| Callsign | NOO2005 |
|---|---|
| Flight time | N/A |
| Altitude | 23000 |
| Route | NINLO3A LOKOV W35 IVRIK IVRIK1B |
| Aircraft | A320/M-SDE3FGHIRWY/LB1 |
Departure
| Time | 2026-04-30 19:48 |
|---|---|
| Airport | Ernesto Cortissoz International Airport (SKBQ) |
Arrival
| Time | N/A |
|---|---|
| Airport | Palonegro Airport (SKBG) |
| Time | Latitude | Longitude | Altitude | Speed | Heading |
|---|---|---|---|---|---|
| 2026-04-30 19:17 | 10.88796 | -74.77674 | 107 ft | 0 kts | 130° |
| 2026-04-30 19:35 | 10.88800 | -74.77679 | 107 ft | 2 kts | 130° |
| 2026-04-30 19:36 | 10.88810 | -74.77691 | 107 ft | 2 kts | 141° |
| 2026-04-30 19:36 | 10.88823 | -74.77698 | 107 ft | 2 kts | 154° |
| 2026-04-30 19:36 | 10.88852 | -74.77705 | 107 ft | 2 kts | 182° |
| 2026-04-30 19:37 | 10.88867 | -74.77704 | 107 ft | 2 kts | 195° |
| 2026-04-30 19:37 | 10.88881 | -74.77698 | 107 ft | 2 kts | 208° |
| 2026-04-30 19:37 | 10.88890 | -74.77692 | 107 ft | 0 kts | 218° |
| 2026-04-30 19:37 | 10.88895 | -74.77689 | 107 ft | 0 kts | 221° |
| 2026-04-30 19:40 | 10.88892 | -74.77691 | 107 ft | 1 kts | 220° |
| 2026-04-30 19:40 | 10.88877 | -74.77703 | 107 ft | 4 kts | 220° |
| 2026-04-30 19:41 | 10.88847 | -74.77729 | 107 ft | 6 kts | 219° |
| 2026-04-30 19:41 | 10.88803 | -74.77766 | 107 ft | 9 kts | 220° |
| 2026-04-30 19:41 | 10.88811 | -74.77824 | 107 ft | 10 kts | 308° |
| 2026-04-30 19:41 | 10.88859 | -74.77881 | 107 ft | 8 kts | 302° |
| 2026-04-30 19:42 | 10.88831 | -74.77939 | 107 ft | 11 kts | 222° |
| 2026-04-30 19:42 | 10.88767 | -74.77996 | 107 ft | 13 kts | 221° |
| 2026-04-30 19:42 | 10.88692 | -74.78062 | 107 ft | 14 kts | 220° |
| 2026-04-30 19:42 | 10.88623 | -74.78123 | 107 ft | 12 kts | 221° |
| 2026-04-30 19:43 | 10.88556 | -74.78184 | 107 ft | 13 kts | 221° |
| 2026-04-30 19:43 | 10.88484 | -74.78246 | 107 ft | 13 kts | 220° |
| 2026-04-30 19:43 | 10.88410 | -74.78309 | 107 ft | 14 kts | 219° |
| 2026-04-30 19:44 | 10.88258 | -74.78440 | 107 ft | 14 kts | 220° |
| 2026-04-30 19:44 | 10.88178 | -74.78508 | 107 ft | 15 kts | 219° |
| 2026-04-30 19:44 | 10.88098 | -74.78576 | 107 ft | 15 kts | 220° |
| 2026-04-30 19:44 | 10.88016 | -74.78645 | 107 ft | 15 kts | 220° |
| 2026-04-30 19:45 | 10.87940 | -74.78711 | 107 ft | 12 kts | 223° |
| 2026-04-30 19:45 | 10.87918 | -74.78768 | 107 ft | 8 kts | 262° |
| 2026-04-30 19:45 | 10.87914 | -74.78828 | 107 ft | 8 kts | 263° |
| 2026-04-30 19:45 | 10.87907 | -74.78894 | 107 ft | 9 kts | 269° |
| 2026-04-30 19:46 | 10.87924 | -74.78948 | 107 ft | 8 kts | 313° |
| 2026-04-30 19:46 | 10.87973 | -74.78934 | 107 ft | 8 kts | 41° |
| 2026-04-30 19:46 | 10.87978 | -74.78929 | 107 ft | 0 kts | 40° |
| 2026-04-30 19:47 | 10.88029 | -74.78886 | 107 ft | 38 kts | 40° |
| 2026-04-30 19:47 | 10.88249 | -74.78697 | 107 ft | 86 kts | 39° |
| 2026-04-30 19:47 | 10.89139 | -74.77928 | 126 ft | 159 kts | 40° |
| 2026-04-30 19:47 | 10.90011 | -74.77162 | 629 ft | 165 kts | 41° |
| 2026-04-30 19:48 | 10.90857 | -74.76430 | 1368 ft | 161 kts | 39° |
| 2026-04-30 19:48 | 10.91706 | -74.75728 | 2061 ft | 159 kts | 40° |
| 2026-04-30 19:48 | 10.92568 | -74.74990 | 2540 ft | 172 kts | 42° |
| 2026-04-30 19:48 | 10.93518 | -74.74155 | 2990 ft | 189 kts | 43° |
| 2026-04-30 19:49 | 10.94494 | -74.73180 | 3442 ft | 206 kts | 57° |
| 2026-04-30 19:49 | 10.94599 | -74.70278 | 4728 ft | 225 kts | 120° |
| 2026-04-30 19:49 | 10.93679 | -74.68990 | 5577 ft | 228 kts | 126° |
| 2026-04-30 19:50 | 10.92706 | -74.67745 | 6413 ft | 230 kts | 127° |
| 2026-04-30 19:50 | 10.91704 | -74.66471 | 7211 ft | 234 kts | 129° |
| 2026-04-30 19:50 | 10.90453 | -74.65414 | 7996 ft | 240 kts | 150° |
| 2026-04-30 19:50 | 10.88861 | -74.64813 | 8586 ft | 255 kts | 162° |
| 2026-04-30 19:51 | 10.87100 | -74.64339 | 9061 ft | 273 kts | 164° |
| 2026-04-30 19:51 | 10.85214 | -74.63856 | 9568 ft | 289 kts | 164° |
| 2026-04-30 19:51 | 10.83253 | -74.63347 | 10330 ft | 294 kts | 164° |
| 2026-04-30 19:51 | 10.81246 | -74.62819 | 10901 ft | 307 kts | 164° |
| 2026-04-30 19:52 | 10.79145 | -74.62260 | 11285 ft | 325 kts | 164° |
| 2026-04-30 19:52 | 10.76884 | -74.61655 | 11647 ft | 343 kts | 164° |
| 2026-04-30 19:52 | 10.74530 | -74.61023 | 11969 ft | 361 kts | 164° |
| 2026-04-30 19:52 | 10.72063 | -74.60359 | 12269 ft | 378 kts | 165° |
| 2026-04-30 19:53 | 10.69477 | -74.59663 | 12732 ft | 388 kts | 165° |
| 2026-04-30 19:53 | 10.66880 | -74.58963 | 13437 ft | 391 kts | 165° |
| 2026-04-30 19:53 | 10.64276 | -74.58262 | 14161 ft | 393 kts | 165° |
| 2026-04-30 19:53 | 10.61619 | -74.57546 | 14855 ft | 396 kts | 165° |
| 2026-04-30 19:54 | 10.58956 | -74.56827 | 15532 ft | 399 kts | 165° |
| 2026-04-30 19:54 | 10.56291 | -74.56109 | 16197 ft | 401 kts | 165° |
| 2026-04-30 19:54 | 10.53585 | -74.55379 | 16856 ft | 404 kts | 165° |
| 2026-04-30 19:54 | 10.50890 | -74.54652 | 17498 ft | 406 kts | 165° |
| 2026-04-30 19:55 | 10.48156 | -74.53915 | 18131 ft | 409 kts | 165° |
| 2026-04-30 19:55 | 10.45403 | -74.53173 | 18727 ft | 412 kts | 165° |
| 2026-04-30 19:55 | 10.42653 | -74.52433 | 19252 ft | 416 kts | 165° |
| 2026-04-30 19:55 | 10.39822 | -74.51670 | 19767 ft | 421 kts | 165° |
| 2026-04-30 19:56 | 10.36986 | -74.50906 | 20274 ft | 425 kts | 165° |
| 2026-04-30 19:56 | 10.34125 | -74.50136 | 20776 ft | 429 kts | 165° |
| 2026-04-30 19:56 | 10.31265 | -74.49365 | 21249 ft | 433 kts | 165° |
| 2026-04-30 19:56 | 10.28336 | -74.48577 | 21713 ft | 437 kts | 165° |
| 2026-04-30 19:57 | 10.25394 | -74.47784 | 22158 ft | 441 kts | 165° |
| 2026-04-30 19:57 | 10.22436 | -74.46988 | 22588 ft | 445 kts | 165° |
| 2026-04-30 19:57 | 10.19428 | -74.46178 | 22793 ft | 449 kts | 165° |
| 2026-04-30 19:57 | 10.16425 | -74.45370 | 22795 ft | 449 kts | 165° |
| 2026-04-30 19:58 | 10.13426 | -74.44563 | 22794 ft | 449 kts | 165° |
| 2026-04-30 19:58 | 10.10423 | -74.43755 | 22791 ft | 450 kts | 165° |
| 2026-04-30 19:58 | 10.07368 | -74.42932 | 22787 ft | 451 kts | 165° |
| 2026-04-30 19:58 | 10.04349 | -74.42120 | 22784 ft | 451 kts | 165° |
| 2026-04-30 19:59 | 10.01342 | -74.41312 | 22781 ft | 451 kts | 165° |
| 2026-04-30 19:59 | 9.98304 | -74.40494 | 22778 ft | 451 kts | 165° |
| 2026-04-30 19:59 | 9.92273 | -74.38873 | 22776 ft | 451 kts | 165° |
| 2026-04-30 20:00 | 9.89268 | -74.38065 | 22776 ft | 451 kts | 165° |
| 2026-04-30 20:00 | 9.86232 | -74.37250 | 22776 ft | 451 kts | 165° |
| 2026-04-30 20:00 | 9.83217 | -74.36440 | 22775 ft | 451 kts | 165° |
| 2026-04-30 20:00 | 9.80202 | -74.35630 | 22775 ft | 451 kts | 165° |
| 2026-04-30 20:01 | 9.74166 | -74.34010 | 22775 ft | 451 kts | 165° |
| 2026-04-30 20:01 | 9.71133 | -74.33195 | 22776 ft | 450 kts | 165° |
| 2026-04-30 20:01 | 9.68137 | -74.32391 | 22776 ft | 450 kts | 165° |
| 2026-04-30 20:02 | 9.62093 | -74.30769 | 22775 ft | 450 kts | 165° |
| 2026-04-30 20:02 | 9.59095 | -74.29964 | 22775 ft | 450 kts | 165° |
| 2026-04-30 20:03 | 9.54059 | -74.28614 | 22776 ft | 449 kts | 165° |